Time;durP1;ratioP1;P1;durP2;ratioP2;P2;SDS_P1;SDS_P2;PMS_P1;PMS_P2;Temp;Humidity;BMP_temperature;BMP_pressure;BME280_temperature;BME280_humidity;BME280_pressure;Samples;Min_cycle;Max_cycle;Signal;HPM_P1;HPM_P2
2021/04/10 04:12:07;;;;;;;0.55;0.55;;;-0.10;99.90;;;;;;5050286;28;20072;-67
2021/04/10 04:14:33;;;;;;;0.65;0.65;;;0.20;99.90;;;;;;5051690;28;20029;-67
2021/04/10 04:17:00;;;;;;;0.60;0.60;;;0.60;99.90;;;;;;5052019;28;20025;-67
2021/04/10 04:19:25;;;;;;;0.70;0.70;;;1.00;99.90;;;;;;5051496;28;20112;-67
2021/04/10 04:21:51;;;;;;;0.60;0.60;;;1.30;99.90;;;;;;5052170;28;20063;-67
2021/04/10 04:24:17;;;;;;;1.10;0.70;;;1.60;99.90;;;;;;5051306;28;20121;-67
2021/04/10 04:26:42;;;;;;;0.60;0.60;;;1.90;99.90;;;;;;5051688;28;20047;-66
2021/04/10 04:29:08;;;;;;;0.50;0.50;;;2.20;99.90;;;;;;5051511;28;20025;-68
2021/04/10 04:31:34;;;;;;;0.60;0.60;;;2.60;99.90;;;;;;5051583;28;20029;-66
2021/04/10 04:34:00;;;;;;;0.60;0.60;;;2.80;99.70;;;;;;5051467;28;20067;-68
2021/04/10 04:36:25;;;;;;;2.60;0.60;;;3.00;97.60;;;;;;5051346;28;20025;-68
2021/04/10 04:38:51;;;;;;;0.50;0.50;;;3.20;96.20;;;;;;5049979;28;20028;-68
2021/04/10 04:41:17;;;;;;;0.57;0.40;;;3.40;96.00;;;;;;5050979;28;20230;-67
2021/04/10 04:43:43;;;;;;;0.60;0.55;;;3.80;96.70;;;;;;5050301;28;20017;-67
2021/04/10 04:46:08;;;;;;;0.88;0.50;;;4.00;92.30;;;;;;5051412;28;20393;-69
2021/04/10 04:48:34;;;;;;;0.55;0.52;;;4.10;91.20;;;;;;5052886;28;20036;-66
2021/04/10 04:51:00;;;;;;;0.40;0.40;;;4.20;89.30;;;;;;5055170;28;20044;-67
2021/04/10 04:53:26;;;;;;;0.40;0.40;;;4.30;87.80;;;;;;5055082;28;20028;-68
2021/04/10 04:55:51;;;;;;;0.60;0.60;;;4.50;87.00;;;;;;5054999;28;20036;-68
2021/04/10 04:58:17;;;;;;;0.50;0.50;;;4.60;85.40;;;;;;5051898;28;20029;-68
2021/04/10 05:00:43;;;;;;;0.40;0.40;;;4.80;83.90;;;;;;5054780;28;20013;-68
2021/04/10 05:03:08;;;;;;;0.40;0.40;;;5.00;82.30;;;;;;5054716;28;20075;-68
2021/04/10 05:05:34;;;;;;;0.80;0.40;;;5.10;82.10;;;;;;5054322;28;20101;-68
2021/04/10 05:08:00;;;;;;;0.60;0.40;;;5.00;79.60;;;;;;5054572;28;20032;-67
2021/04/10 05:10:26;;;;;;;0.50;0.50;;;5.00;80.50;;;;;;5056773;28;20040;-67
2021/04/10 05:12:52;;;;;;;0.52;0.40;;;5.00;80.20;;;;;;5054100;28;20052;-67
2021/04/10 05:15:18;;;;;;;0.35;0.35;;;4.90;80.60;;;;;;5060351;28;20029;-67
2021/04/10 05:17:44;;;;;;;0.50;0.40;;;4.80;80.20;;;;;;5054541;28;20024;-67
2021/04/10 05:20:10;;;;;;;0.30;0.30;;;4.90;79.60;;;;;;5054361;28;20365;-65
2021/04/10 05:22:36;;;;;;;0.35;0.35;;;5.00;80.10;;;;;;5054783;28;20476;-66
2021/04/10 05:25:02;;;;;;;0.40;0.40;;;5.20;77.80;;;;;;5054597;28;20121;-66
2021/04/10 05:27:28;;;;;;;0.40;0.40;;;5.40;78.70;;;;;;5054810;28;20021;-66
2021/04/10 05:29:54;;;;;;;1.55;0.50;;;5.50;76.90;;;;;;5054412;28;20051;-66
2021/04/10 05:32:20;;;;;;;0.55;0.50;;;5.30;76.50;;;;;;5054207;28;20087;-66
2021/04/10 05:34:45;;;;;;;0.50;0.50;;;5.20;76.90;;;;;;5054204;28;20032;-66
2021/04/10 05:37:11;;;;;;;0.40;0.40;;;5.00;77.80;;;;;;5054369;28;20112;-67
2021/04/10 05:39:39;;;;;;;0.40;0.40;;;4.80;77.60;;;;;;5054335;28;20040;-67
2021/04/10 05:42:05;;;;;;;0.47;0.40;;;4.60;78.70;;;;;;5054250;28;20116;-67
2021/04/10 05:44:31;;;;;;;0.40;0.40;;;4.50;80.00;;;;;;5054060;28;20029;-67
2021/04/10 05:46:56;;;;;;;0.40;0.40;;;4.40;80.60;;;;;;5054281;28;20032;-67
2021/04/10 05:49:22;;;;;;;0.47;0.47;;;4.30;81.40;;;;;;5054189;28;20038;-67
2021/04/10 05:51:48;;;;;;;0.40;0.40;;;4.20;82.60;;;;;;5054156;28;20061;-67
2021/04/10 05:54:14;;;;;;;1.65;0.40;;;4.10;81.80;;;;;;5054211;28;20032;-69
2021/04/10 05:56:39;;;;;;;0.40;0.40;;;4.00;83.50;;;;;;5054296;28;20031;-68
2021/04/10 05:59:05;;;;;;;0.50;0.50;;;4.00;84.10;;;;;;5053845;28;20048;-67
2021/04/10 06:01:31;;;;;;;1.17;0.52;;;3.90;84.50;;;;;;5054043;28;20132;-66
2021/04/10 06:03:57;;;;;;;1.17;0.60;;;4.00;85.00;;;;;;5053831;28;20432;-66
2021/04/10 06:06:23;;;;;;;0.63;0.40;;;4.00;84.00;;;;;;5053632;28;20013;-66
2021/04/10 06:08:51;;;;;;;1.10;0.40;;;4.20;84.50;;;;;;5050530;28;20025;-66
2021/04/10 06:11:17;;;;;;;0.40;0.40;;;4.40;84.60;;;;;;5052891;28;20037;-68
2021/04/10 06:13:42;;;;;;;0.40;0.40;;;4.80;83.90;;;;;;5052856;28;20040;-68
2021/04/10 06:16:08;;;;;;;0.50;0.50;;;5.10;82.10;;;;;;5053770;28;20109;-68
2021/04/10 06:18:34;;;;;;;1.25;0.40;;;5.30;79.70;;;;;;5053851;28;20037;-68
2021/04/10 06:21:01;;;;;;;0.60;0.50;;;5.40;77.60;;;;;;5053696;28;20029;-68
2021/04/10 06:23:27;;;;;;;0.57;0.40;;;5.20;76.90;;;;;;5053658;28;20032;-68
2021/04/10 06:25:53;;;;;;;0.75;0.50;;;4.90;77.00;;;;;;5053519;28;20028;-67
2021/04/10 06:28:18;;;;;;;0.30;0.30;;;4.80;78.30;;;;;;5053454;28;20025;-68
2021/04/10 06:30:44;;;;;;;2.00;0.70;;;4.90;79.40;;;;;;5053281;28;20041;-67
2021/04/10 06:33:10;;;;;;;0.60;0.47;;;5.00;90.20;;;;;;5053409;28;20071;-69
2021/04/10 06:35:37;;;;;;;0.65;0.50;;;5.50;80.40;;;;;;5049259;28;20017;-66
2021/04/10 06:38:03;;;;;;;0.40;0.40;;;5.50;78.80;;;;;;5051547;28;20100;-67
2021/04/10 06:40:33;;;;;;;0.40;0.40;;;5.30;77.10;;;;;;5049073;28;20021;-68
2021/04/10 06:43:01;;;;;;;0.40;0.40;;;5.30;78.20;;;;;;5036291;28;20070;-69
2021/04/10 06:45:27;;;;;;;2.83;0.40;;;5.40;77.90;;;;;;5052185;28;20400;-69
2021/04/10 06:47:54;;;;;;;0.98;0.45;;;5.30;78.50;;;;;;5052232;28;20017;-69
2021/04/10 06:50:21;;;;;;;0.77;0.60;;;5.50;79.00;;;;;;5052818;28;20025;-69
2021/04/10 06:52:47;;;;;;;0.90;0.45;;;5.50;77.00;;;;;;5049553;28;20081;-70
2021/04/10 06:55:17;;;;;;;0.47;0.47;;;5.50;77.60;;;;;;5051101;28;20021;-70
2021/04/10 06:58:03;;;;;;;0.50;0.50;;;5.70;77.70;;;;;;5051155;28;20031;-67
2021/04/10 07:00:30;;;;;;;0.50;0.50;;;5.70;88.00;;;;;;5052154;28;20029;-70
2021/04/10 07:02:57;;;;;;;0.40;0.40;;;8.10;91.80;;;;;;5049364;28;20043;-70
2021/04/10 07:05:23;;;;;;;2.10;0.50;;;8.10;72.40;;;;;;5052166;28;20388;-70
2021/04/10 07:07:50;;;;;;;0.40;0.40;;;7.60;71.90;;;;;;5052442;28;20021;-69
2021/04/10 07:10:17;;;;;;;0.63;0.40;;;7.00;71.80;;;;;;5049278;28;20041;-70
2021/04/10 07:12:43;;;;;;;0.50;0.50;;;6.60;72.90;;;;;;5049535;28;20076;-69
2021/04/10 07:15:12;;;;;;;0.40;0.40;;;6.30;74.00;;;;;;5052067;28;20036;-69
2021/04/10 07:17:38;;;;;;;2.92;0.60;;;6.20;73.50;;;;;;5052061;28;20035;-67
2021/04/10 07:20:32;;;;;;;1.75;0.57;;;6.10;78.90;;;;;;5052184;28;20116;-71
2021/04/10 07:23:00;;;;;;;0.43;0.43;;;6.30;74.70;;;;;;5052714;28;20159;-70
2021/04/10 07:25:27;;;;;;;1.13;0.40;;;6.10;74.50;;;;;;5052071;28;20031;-70
2021/04/10 07:27:54;;;;;;;1.05;0.40;;;6.00;74.90;;;;;;5052408;28;20495;-69
2021/04/10 07:30:20;;;;;;;1.60;0.40;;;5.90;75.10;;;;;;5051783;28;20507;-70
2021/04/10 07:32:46;;;;;;;1.35;0.50;;;5.90;75.00;;;;;;5052558;28;20104;-70
2021/04/10 07:35:14;;;;;;;0.52;0.52;;;6.10;81.50;;;;;;5051239;28;20454;-70
2021/04/10 07:37:50;;;;;;;2.55;0.40;;;6.20;82.20;;;;;;5051883;28;20017;-70
2021/04/10 07:40:22;;;;;;;1.27;0.50;;;6.00;74.60;;;;;;5051440;28;20057;-70
2021/04/10 07:42:49;;;;;;;1.83;1.20;;;5.70;74.50;;;;;;5052407;28;20175;-70
2021/04/10 07:45:21;;;;;;;0.50;0.50;;;5.80;79.10;;;;;;5052329;28;20029;-70
2021/04/10 07:47:46;;;;;;;0.50;0.47;;;5.60;76.00;;;;;;5052015;28;20021;-71
2021/04/10 07:50:26;;;;;;;2.90;0.50;;;5.50;76.40;;;;;;5051685;28;20033;-70
2021/04/10 07:52:52;;;;;;;1.73;0.60;;;5.50;77.60;;;;;;5052153;28;20025;-70
2021/04/10 07:55:41;;;;;;;0.57;0.57;;;5.40;76.80;;;;;;5050119;28;20278;-69
2021/04/10 07:58:27;;;;;;;0.73;0.50;;;5.30;76.60;;;;;;5031921;28;20029;-70
2021/04/10 08:00:58;;;;;;;0.65;0.40;;;5.20;77.20;;;;;;5031722;28;20033;-69
2021/04/10 08:03:38;;;;;;;0.43;0.43;;;5.10;77.10;;;;;;5032109;28;20017;-68
2021/04/10 08:06:07;;;;;;;0.50;0.50;;;5.00;78.00;;;;;;5049539;28;20025;-70
2021/04/10 08:08:54;;;;;;;1.50;0.57;;;4.90;78.30;;;;;;5047126;28;20028;-70
2021/04/10 08:11:36;;;;;;;2.03;0.50;;;4.90;78.50;;;;;;5048857;28;20061;-71
2021/04/10 08:14:09;;;;;;;0.65;0.40;;;4.90;78.60;;;;;;5049387;28;20397;-71
2021/04/10 08:16:45;;;;;;;1.15;0.40;;;4.80;77.90;;;;;;5048074;28;20046;-71
2021/04/10 08:19:12;;;;;;;2.58;0.60;;;4.70;77.50;;;;;;5051497;28;20083;-71
2021/04/10 08:21:49;;;;;;;0.52;0.52;;;4.60;78.40;;;;;;5050722;28;20024;-70
2021/04/10 08:24:23;;;;;;;1.15;0.52;;;4.60;79.00;;;;;;5055008;28;20021;-70
2021/04/10 08:26:59;;;;;;;1.52;0.63;;;4.50;78.00;;;;;;5055165;28;20029;-70
2021/04/10 08:29:25;;;;;;;3.80;0.43;;;4.60;79.40;;;;;;5053300;28;20039;-70
2021/04/10 08:31:52;;;;;;;1.75;0.50;;;4.50;78.00;;;;;;5055223;28;20029;-69
2021/04/10 08:34:18;;;;;;;2.85;0.60;;;4.50;78.50;;;;;;5055713;28;20029;-69
2021/04/10 08:36:50;;;;;;;0.60;0.43;;;4.40;78.70;;;;;;5055327;28;20025;-69
2021/04/10 08:39:18;;;;;;;0.93;0.50;;;5.30;88.40;;;;;;5055674;28;20047;-70
2021/04/10 08:41:46;;;;;;;1.55;0.50;;;5.30;77.80;;;;;;5054913;28;20028;-68
2021/04/10 08:44:15;;;;;;;2.00;0.60;;;5.00;78.00;;;;;;5055111;28;20020;-67
2021/04/10 08:46:44;;;;;;;2.42;0.55;;;5.00;81.10;;;;;;5055549;28;20112;-67
2021/04/10 08:49:14;;;;;;;0.60;0.52;;;5.00;80.00;;;;;;5055487;28;20418;-68
2021/04/10 08:51:41;;;;;;;1.60;0.70;;;4.90;79.60;;;;;;5054785;28;20033;-67
2021/04/10 08:54:10;;;;;;;2.55;1.15;;;5.00;79.80;;;;;;5055156;28;20090;-66
2021/04/10 08:56:35;;;;;;;4.20;0.70;;;5.20;95.80;;;;;;5055052;28;20081;-67
2021/04/10 08:59:13;;;;;;;1.33;0.70;;;6.70;94.60;;;;;;5055154;28;20060;-68
2021/04/10 09:01:42;;;;;;;0.68;0.40;;;6.70;77.60;;;;;;5054681;28;20078;-67
2021/04/10 09:04:11;;;;;;;1.42;0.75;;;6.40;75.90;;;;;;5054593;28;20031;-67
2021/04/10 09:06:40;;;;;;;0.90;0.50;;;6.10;75.70;;;;;;5052399;28;20376;-67
2021/04/10 09:09:11;;;;;;;0.82;0.35;;;5.90;74.90;;;;;;5054914;28;20036;-67
2021/04/10 09:11:43;;;;;;;1.35;0.63;;;5.80;75.30;;;;;;5054645;28;20407;-67
2021/04/10 09:14:09;;;;;;;1.85;0.50;;;5.60;74.10;;;;;;5054737;28;20082;-67
2021/04/10 09:16:39;;;;;;;3.10;0.50;;;5.60;77.40;;;;;;5054480;28;20199;-67
2021/04/10 09:19:11;;;;;;;1.67;0.50;;;5.60;75.60;;;;;;5054943;28;20033;-67
2021/04/10 09:21:51;;;;;;;1.27;0.52;;;5.60;74.10;;;;;;5054455;28;20107;-69
2021/04/10 09:24:30;;;;;;;0.95;0.40;;;5.40;73.10;;;;;;5054633;28;20122;-67
2021/04/10 09:26:59;;;;;;;5.22;0.60;;;5.30;73.30;;;;;;5054614;28;20501;-67
2021/04/10 09:29:25;;;;;;;1.65;0.60;;;5.20;73.00;;;;;;5052973;28;20033;-67
2021/04/10 09:32:00;;;;;;;0.47;0.47;;;5.30;74.70;;;;;;5054316;28;20040;-67
2021/04/10 09:34:44;;;;;;;2.08;0.55;;;5.30;74.20;;;;;;5053672;28;20054;-67
2021/04/10 09:37:33;;;;;;;1.13;0.60;;;5.30;73.50;;;;;;5054292;28;20024;-67
2021/04/10 09:40:17;;;;;;;3.00;0.55;;;5.30;73.80;;;;;;5052675;28;20044;-68
2021/04/10 09:42:47;;;;;;;1.65;0.68;;;5.30;73.80;;;;;;5054446;28;20104;-67
2021/04/10 09:45:31;;;;;;;0.95;0.60;;;5.40;73.50;;;;;;5054234;28;20028;-67
2021/04/10 09:50:29;;;;;;;0.75;0.60;;;5.40;72.50;;;;;;5053775;28;20079;-69
2021/04/10 09:53:05;;;;;;;1.52;0.55;;;5.40;73.00;;;;;;5053803;28;20516;-67
2021/04/10 09:55:33;;;;;;;2.67;0.68;;;5.40;72.70;;;;;;5054041;28;20487;-70
2021/04/10 09:58:05;;;;;;;1.08;0.50;;;5.50;73.60;;;;;;5053549;28;20021;-70
2021/04/10 10:00:33;;;;;;;0.75;0.50;;;5.50;72.80;;;;;;5048556;28;20410;-71
2021/04/10 10:02:59;;;;;;;0.57;0.47;;;5.50;72.20;;;;;;5053305;28;20024;-70
2021/04/10 10:05:31;;;;;;;0.68;0.50;;;5.30;71.60;;;;;;5058703;28;20032;-70
2021/04/10 10:08:08;;;;;;;0.60;0.50;;;5.20;72.50;;;;;;5068601;28;20064;-70
2021/04/10 10:10:36;;;;;;;1.77;0.60;;;5.10;71.90;;;;;;5073546;28;20032;-70
2021/04/10 10:13:15;;;;;;;0.88;0.50;;;5.00;72.10;;;;;;5073596;28;20040;-70
2021/04/10 10:15:42;;;;;;;5.28;0.70;;;4.90;72.40;;;;;;5073880;28;20031;-68
2021/04/10 10:18:25;;;;;;;0.82;0.32;;;4.90;72.70;;;;;;5073552;28;20472;-68
2021/04/10 10:20:56;;;;;;;4.25;0.70;;;5.00;73.30;;;;;;5073813;28;20104;-70
2021/04/10 10:23:47;;;;;;;4.47;0.30;;;5.00;72.30;;;;;;5073293;28;20475;-68
2021/04/10 10:26:14;;;;;;;5.72;1.63;;;5.10;72.70;;;;;;5057583;28;20035;-70
2021/04/10 10:28:42;;;;;;;1.90;0.40;;;5.20;71.80;;;;;;5053669;28;20114;-68
2021/04/10 10:31:10;;;;;;;3.42;0.50;;;5.20;73.20;;;;;;5053052;28;20366;-68
2021/04/10 10:33:37;;;;;;;0.50;0.40;;;5.30;71.00;;;;;;5053066;28;20021;-67
2021/04/10 10:36:03;;;;;;;2.70;0.70;;;5.20;71.00;;;;;;5052971;28;20506;-68
2021/04/10 10:38:39;;;;;;;1.25;0.50;;;5.20;71.40;;;;;;5053292;28;20029;-69
2021/04/10 10:41:06;;;;;;;1.13;0.50;;;5.10;71.20;;;;;;5052861;28;20032;-68
2021/04/10 10:43:33;;;;;;;0.98;0.50;;;5.10;71.60;;;;;;5053054;28;20361;-68
2021/04/10 10:46:09;;;;;;;3.03;0.50;;;5.00;71.20;;;;;;5053165;28;20029;-68
2021/04/10 10:48:40;;;;;;;0.77;0.43;;;4.90;70.50;;;;;;5052968;28;20021;-68
2021/04/10 10:51:12;;;;;;;0.50;0.40;;;4.80;70.70;;;;;;5052627;28;20033;-68
2021/04/10 10:53:41;;;;;;;1.30;0.65;;;4.70;71.30;;;;;;5052562;28;20021;-68
2021/04/10 10:56:08;;;;;;;4.47;0.70;;;4.90;72.50;;;;;;5052719;28;20025;-68
2021/04/10 10:59:01;;;;;;;1.35;0.70;;;4.90;72.10;;;;;;5052729;28;20043;-68
2021/04/10 11:01:43;;;;;;;1.85;0.50;;;5.00;72.90;;;;;;5052233;28;20557;-68
2021/04/10 11:04:11;;;;;;;1.08;0.40;;;5.10;72.10;;;;;;5052574;28;20025;-68
2021/04/10 11:06:39;;;;;;;0.45;0.45;;;5.10;70.50;;;;;;5052415;28;20082;-68
2021/04/10 11:09:08;;;;;;;2.20;0.50;;;5.00;70.40;;;;;;5052706;28;20021;-68
2021/04/10 11:11:37;;;;;;;1.65;0.52;;;4.90;70.60;;;;;;5052172;28;20060;-67
2021/04/10 11:14:04;;;;;;;0.63;0.50;;;4.90;71.10;;;;;;5052527;28;20047;-70
2021/04/10 11:16:30;;;;;;;1.48;0.40;;;5.00;70.50;;;;;;5052283;28;20037;-69
2021/04/10 11:19:00;;;;;;;4.60;0.68;;;5.00;69.70;;;;;;5052453;28;20435;-69
2021/04/10 11:21:31;;;;;;;3.10;1.52;;;5.00;70.00;;;;;;5052158;28;20024;-69
2021/04/10 11:24:13;;;;;;;1.35;0.40;;;5.00;69.30;;;;;;5052157;28;20055;-68
2021/04/10 11:26:42;;;;;;;3.58;0.70;;;5.20;73.80;;;;;;5052177;28;20023;-70
2021/04/10 11:29:17;;;;;;;1.10;0.50;;;5.50;72.20;;;;;;5052547;28;20108;-68
2021/04/10 11:32:13;;;;;;;0.88;0.50;;;5.50;69.60;;;;;;5052061;28;20072;-67
2021/04/10 11:34:42;;;;;;;3.22;0.45;;;5.60;74.70;;;;;;5051449;28;20037;-67
2021/04/10 11:37:09;;;;;;;0.77;0.40;;;5.90;77.30;;;;;;5052169;28;20480;-67
2021/04/10 11:39:50;;;;;;;1.10;0.50;;;6.20;77.70;;;;;;5051646;28;20086;-67
2021/04/10 11:42:21;;;;;;;6.03;0.63;;;6.50;80.70;;;;;;5052080;28;20033;-67
2021/04/10 11:44:47;;;;;;;1.10;0.43;;;6.70;74.30;;;;;;5051814;28;20063;-67
2021/04/10 11:47:28;;;;;;;2.20;0.60;;;7.00;74.70;;;;;;5052128;28;20091;-65
2021/04/10 11:50:06;;;;;;;0.40;0.40;;;7.10;69.30;;;;;;5051897;28;20032;-67
2021/04/10 11:52:32;;;;;;;1.85;0.40;;;7.00;66.30;;;;;;5051981;28;20017;-67
2021/04/10 11:55:08;;;;;;;1.08;0.38;;;6.90;65.70;;;;;;5051766;28;20495;-65
2021/04/10 11:57:37;;;;;;;1.17;0.55;;;7.80;99.50;;;;;;5051403;28;20545;-65
2021/04/10 12:00:13;;;;;;;1.65;0.40;;;9.90;88.40;;;;;;5051559;28;20025;-67
2021/04/10 12:02:44;;;;;;;0.70;0.40;;;10.40;66.30;;;;;;5051675;28;20452;-67
2021/04/10 12:05:19;;;;;;;2.17;0.50;;;9.50;62.00;;;;;;5051528;28;20028;-66
2021/04/10 12:08:08;;;;;;;1.95;0.50;;;8.80;62.80;;;;;;5051693;28;20040;-65
2021/04/10 12:10:36;;;;;;;4.50;0.43;;;8.30;63.70;;;;;;5050716;28;20554;-65
2021/04/10 12:13:02;;;;;;;0.77;0.45;;;8.00;63.30;;;;;;5051470;28;20071;-69
2021/04/10 12:15:33;;;;;;;0.57;0.50;;;7.80;64.10;;;;;;5051162;28;20013;-70
2021/04/10 12:17:59;;;;;;;2.15;0.40;;;7.40;63.10;;;;;;5068539;28;20099;-71
2021/04/10 12:20:25;;;;;;;0.40;0.40;;;7.10;63.60;;;;;;5054118;28;20025;-70
2021/04/10 12:22:52;;;;;;;1.17;0.50;;;6.90;64.30;;;;;;5056973;28;20138;-70
2021/04/10 12:25:18;;;;;;;3.65;0.52;;;6.70;64.40;;;;;;5056840;28;20025;-70
2021/04/10 12:27:43;;;;;;;4.60;0.60;;;6.60;64.40;;;;;;5054333;28;20544;-71
2021/04/10 12:30:10;;;;;;;2.22;0.40;;;6.40;63.80;;;;;;5066113;28;20037;-70
2021/04/10 12:32:36;;;;;;;0.63;0.40;;;6.20;63.60;;;;;;5059858;28;20017;-70
2021/04/10 12:35:03;;;;;;;2.90;1.13;;;6.10;63.30;;;;;;5062726;28;20029;-69
2021/04/10 12:37:28;;;;;;;1.73;0.40;;;6.00;64.00;;;;;;5063089;28;20135;-71
2021/04/10 12:39:54;;;;;;;3.30;0.60;;;6.00;64.20;;;;;;5061098;28;20495;-70
2021/04/10 12:42:19;;;;;;;3.85;0.88;;;6.20;64.90;;;;;;5062422;28;20074;-69
2021/04/10 12:44:45;;;;;;;0.50;0.35;;;6.20;62.70;;;;;;5061233;28;20025;-69
2021/04/10 12:47:21;;;;;;;0.30;0.30;;;6.10;60.70;;;;;;5060389;28;20068;-69
2021/04/10 12:49:48;;;;;;;0.52;0.32;;;6.10;61.00;;;;;;5060655;28;20020;-69
2021/04/10 12:52:14;;;;;;;0.73;0.50;;;6.20;61.20;;;;;;5061929;28;20029;-69
2021/04/10 12:54:40;;;;;;;1.08;0.43;;;6.20;60.10;;;;;;5060169;28;20107;-67
2021/04/10 12:57:06;;;;;;;11.38;0.60;;;6.20;60.30;;;;;;5061167;28;20626;-68
2021/04/10 12:59:32;;;;;;;0.30;0.30;;;6.30;60.60;;;;;;5062079;28;20040;-69
2021/04/10 13:01:59;;;;;;;0.70;0.45;;;6.30;59.90;;;;;;5060445;28;20021;-68
2021/04/10 13:04:26;;;;;;;0.45;0.38;;;6.30;60.00;;;;;;5060770;28;20066;-69
2021/04/10 13:06:54;;;;;;;0.40;0.40;;;6.20;59.70;;;;;;5061783;28;20035;-69
2021/04/10 13:09:20;;;;;;;0.45;0.30;;;6.20;60.10;;;;;;5061815;28;20104;-68
2021/04/10 13:11:46;;;;;;;0.43;0.40;;;6.20;60.30;;;;;;5063307;28;20119;-69
2021/04/10 13:14:12;;;;;;;1.05;0.63;;;6.30;60.90;;;;;;5066525;28;20037;-69
2021/04/10 13:16:38;;;;;;;1.77;0.38;;;6.40;60.40;;;;;;5062226;28;20035;-68
2021/04/10 13:19:05;;;;;;;0.40;0.40;;;6.40;60.20;;;;;;5065766;28;20107;-69
2021/04/10 13:21:31;;;;;;;2.03;0.40;;;6.30;60.10;;;;;;5065228;28;20024;-69
2021/04/10 13:23:57;;;;;;;1.73;0.40;;;6.30;60.60;;;;;;5068161;28;20070;-69
2021/04/10 13:26:24;;;;;;;0.47;0.40;;;6.30;60.50;;;;;;5058934;28;20025;-69
2021/04/10 13:28:50;;;;;;;0.38;0.38;;;6.30;60.40;;;;;;5071530;28;20098;-69
2021/04/10 13:31:17;;;;;;;1.65;0.30;;;6.30;60.00;;;;;;5071808;28;20036;-68
2021/04/10 13:33:43;;;;;;;0.70;0.40;;;6.30;59.40;;;;;;5071502;28;20025;-69
2021/04/10 13:36:09;;;;;;;0.75;0.40;;;6.20;59.30;;;;;;5063721;28;20036;-69
2021/04/10 13:38:35;;;;;;;8.23;0.45;;;6.10;59.40;;;;;;5057358;28;20031;-69
2021/04/10 13:41:03;;;;;;;1.40;0.40;;;6.10;59.60;;;;;;5064022;28;20115;-69
2021/04/10 13:43:29;;;;;;;6.82;0.50;;;6.00;59.80;;;;;;5064501;28;20417;-69
2021/04/10 13:45:54;;;;;;;0.68;0.38;;;5.90;59.40;;;;;;5062530;28;20021;-68
2021/04/10 13:48:20;;;;;;;0.32;0.30;;;5.90;59.60;;;;;;5064191;28;20016;-68
2021/04/10 13:50:48;;;;;;;0.35;0.35;;;5.80;60.10;;;;;;5063807;28;20040;-69
2021/04/10 13:53:14;;;;;;;1.08;0.40;;;5.80;60.10;;;;;;5062563;28;20013;-69
2021/04/10 13:55:40;;;;;;;2.63;0.60;;;5.80;60.40;;;;;;5064259;28;20036;-69
2021/04/10 13:58:05;;;;;;;0.95;0.40;;;5.90;60.90;;;;;;5063872;28;20032;-68
2021/04/10 14:00:31;;;;;;;0.57;0.50;;;5.90;60.90;;;;;;5062340;28;20135;-67
2021/04/10 14:02:57;;;;;;;0.60;0.32;;;6.00;62.10;;;;;;5064417;28;20020;-67
2021/04/10 14:05:23;;;;;;;1.08;0.40;;;6.00;60.30;;;;;;5063234;28;20392;-67
2021/04/10 14:07:49;;;;;;;1.08;0.40;;;6.00;60.50;;;;;;5062682;28;20075;-68
2021/04/10 14:10:18;;;;;;;5.35;0.65;;;6.00;60.80;;;;;;5064121;28;20029;-68
2021/04/10 14:12:45;;;;;;;2.38;0.40;;;6.00;61.30;;;;;;5063062;28;20045;-67
2021/04/10 14:15:20;;;;;;;8.60;0.47;;;6.10;63.70;;;;;;5062353;28;20032;-66
2021/04/10 14:17:47;;;;;;;2.90;0.40;;;6.20;61.80;;;;;;5062387;28;20498;-67
2021/04/10 14:20:17;;;;;;;0.65;0.40;;;6.10;60.70;;;;;;5061783;28;20041;-67
2021/04/10 14:22:43;;;;;;;2.28;0.32;;;6.00;60.80;;;;;;5063278;28;20487;-68
2021/04/10 14:25:10;;;;;;;1.23;0.50;;;6.00;60.40;;;;;;5063701;28;20032;-69
2021/04/10 14:27:37;;;;;;;5.88;2.30;;;6.00;60.40;;;;;;5059722;28;20104;-68
2021/04/10 14:30:05;;;;;;;2.33;0.60;;;6.00;59.80;;;;;;5063349;28;20430;-69
2021/04/10 14:32:31;;;;;;;2.10;0.52;;;6.00;59.80;;;;;;5064022;28;20028;-68
2021/04/10 14:34:57;;;;;;;0.50;0.50;;;5.90;60.00;;;;;;5061827;28;20024;-68
2021/04/10 14:37:23;;;;;;;6.97;0.80;;;5.90;60.20;;;;;;5061555;28;20554;-69
2021/04/10 14:39:49;;;;;;;1.75;0.70;;;5.80;60.30;;;;;;5057428;28;20021;-69
2021/04/10 14:42:15;;;;;;;0.50;0.50;;;5.90;60.40;;;;;;5061658;28;20021;-69
2021/04/10 14:44:41;;;;;;;3.08;0.68;;;5.90;60.60;;;;;;5063026;28;20039;-69
2021/04/10 14:47:07;;;;;;;3.13;0.50;;;5.80;60.50;;;;;;5062985;28;20021;-68
2021/04/10 14:49:33;;;;;;;3.60;0.50;;;5.80;61.00;;;;;;5061409;28;20033;-68
2021/04/10 14:51:59;;;;;;;0.40;0.40;;;5.80;61.60;;;;;;5063420;28;20025;-69
2021/04/10 14:54:24;;;;;;;1.00;0.40;;;5.80;60.80;;;;;;5062768;28;20353;-69
2021/04/10 14:56:50;;;;;;;1.95;0.75;;;5.80;61.20;;;;;;5061292;28;20447;-69
2021/04/10 14:59:16;;;;;;;0.88;0.50;;;5.80;60.50;;;;;;5063602;28;20103;-69
2021/04/10 15:01:42;;;;;;;2.70;0.40;;;5.80;60.50;;;;;;5062247;28;20025;-69
2021/04/10 15:04:07;;;;;;;0.70;0.50;;;5.80;60.20;;;;;;5061836;28;20025;-69
2021/04/10 15:06:33;;;;;;;2.75;0.35;;;5.90;60.80;;;;;;5063505;28;20112;-68
2021/04/10 15:08:59;;;;;;;4.80;0.70;;;5.90;60.00;;;;;;5061358;28;20021;-69
2021/04/10 15:11:25;;;;;;;2.05;0.30;;;5.90;59.60;;;;;;5061935;28;20036;-69
2021/04/10 15:13:54;;;;;;;1.65;0.93;;;5.90;59.30;;;;;;5062858;28;20037;-69
2021/04/10 15:16:31;;;;;;;0.73;0.45;;;5.80;59.50;;;;;;5059132;28;20029;-69
2021/04/10 15:18:56;;;;;;;0.82;0.30;;;5.80;59.50;;;;;;5058229;28;20754;-68
2021/04/10 15:21:25;;;;;;;7.75;0.60;;;5.80;59.20;;;;;;5063752;28;20092;-66
2021/04/10 15:23:51;;;;;;;2.35;0.60;;;6.10;72.00;;;;;;5061193;28;20025;-69
2021/04/10 15:26:17;;;;;;;0.90;0.50;;;8.00;68.80;;;;;;5058271;28;20016;-69
2021/04/10 15:28:44;;;;;;;1.25;0.50;;;7.50;59.00;;;;;;5061857;28;20475;-69
2021/04/10 15:31:10;;;;;;;1.60;0.50;;;6.80;60.10;;;;;;5059826;28;20044;-68
2021/04/10 15:33:44;;;;;;;0.52;0.38;;;6.30;63.10;;;;;;5062368;28;20024;-68
2021/04/10 15:36:10;;;;;;;0.65;0.38;;;6.00;66.30;;;;;;5062969;28;20473;-68
2021/04/10 15:38:36;;;;;;;4.95;1.90;;;5.80;68.20;;;;;;5060671;28;20024;-68
2021/04/10 15:41:02;;;;;;;3.38;0.80;;;5.60;69.30;;;;;;5061761;28;20070;-68
2021/04/10 15:43:28;;;;;;;1.17;0.52;;;5.50;70.10;;;;;;5062407;28;20075;-68
2021/04/10 15:45:54;;;;;;;1.92;1.48;;;5.50;70.50;;;;;;5060514;28;20025;-69
2021/04/10 15:48:21;;;;;;;3.63;0.70;;;5.40;70.70;;;;;;5062494;28;20024;-69
2021/04/10 15:50:47;;;;;;;6.00;0.60;;;5.40;70.70;;;;;;5061862;28;20029;-69
2021/04/10 15:53:17;;;;;;;1.42;0.47;;;7.00;93.50;;;;;;5063520;28;20438;-68
2021/04/10 15:55:42;;;;;;;0.85;0.65;;;7.40;69.80;;;;;;5056521;28;20362;-69
2021/04/10 15:58:09;;;;;;;1.75;0.40;;;6.90;66.90;;;;;;5067893;28;20031;-69
2021/04/10 16:00:34;;;;;;;1.13;0.40;;;6.40;67.60;;;;;;5060641;28;20111;-69
2021/04/10 16:03:03;;;;;;;1.85;0.50;;;6.00;68.40;;;;;;5054377;28;20479;-69
2021/04/10 16:05:29;;;;;;;0.93;0.47;;;5.80;69.40;;;;;;5054449;28;20492;-69
2021/04/10 16:07:55;;;;;;;1.13;0.50;;;5.70;70.00;;;;;;5062806;28;20017;-70
2021/04/10 16:10:21;;;;;;;0.55;0.50;;;5.50;70.40;;;;;;5056941;28;20463;-70
2021/04/10 16:12:46;;;;;;;0.73;0.50;;;5.50;71.20;;;;;;5056568;28;20048;-69
2021/04/10 16:15:12;;;;;;;1.33;0.63;;;5.50;71.40;;;;;;5056896;28;20029;-69
2021/04/10 16:17:38;;;;;;;1.50;0.57;;;5.50;71.70;;;;;;5067917;28;20051;-68
2021/04/10 16:20:04;;;;;;;1.85;0.50;;;5.50;71.90;;;;;;5065396;28;20052;-69
2021/04/10 16:22:30;;;;;;;0.45;0.40;;;5.40;72.00;;;;;;5059846;28;20087;-69
2021/04/10 16:24:56;;;;;;;1.85;0.47;;;5.40;72.50;;;;;;5059893;28;20536;-68
2021/04/10 16:27:21;;;;;;;2.00;0.63;;;5.30;72.60;;;;;;5064528;28;20019;-69
2021/04/10 16:29:47;;;;;;;4.68;1.15;;;5.40;72.70;;;;;;5061380;28;20024;-69
2021/04/10 16:32:14;;;;;;;4.50;0.98;;;5.30;72.50;;;;;;5060097;28;20052;-69
2021/04/10 16:34:40;;;;;;;0.98;0.70;;;5.30;72.50;;;;;;5062153;28;20072;-68
2021/04/10 16:37:06;;;;;;;2.65;2.20;;;5.20;72.10;;;;;;5061441;28;20388;-68
2021/04/10 16:39:32;;;;;;;3.40;2.50;;;5.10;72.20;;;;;;5060045;28;20028;-69
2021/04/10 16:41:58;;;;;;;12.38;6.93;;;5.10;72.50;;;;;;5061883;28;20017;-69
2021/04/10 16:44:23;;;;;;;35.47;17.15;;;5.00;72.50;;;;;;5063746;28;20029;-69
2021/04/10 16:46:49;;;;;;;25.83;13.10;;;5.00;72.70;;;;;;5064117;28;20016;-69
2021/04/10 16:49:15;;;;;;;3.88;1.98;;;5.00;72.80;;;;;;5066135;28;20025;-69
2021/04/10 16:51:41;;;;;;;1.67;1.30;;;5.00;72.90;;;;;;5064480;28;20465;-68
2021/04/10 16:54:06;;;;;;;1.88;0.60;;;5.00;73.00;;;;;;5064642;28;20020;-68
2021/04/10 16:56:34;;;;;;;1.50;0.60;;;5.00;73.10;;;;;;5065771;28;20032;-68
2021/04/10 16:59:00;;;;;;;4.03;1.27;;;5.00;73.00;;;;;;5057668;28;20039;-69
2021/04/10 17:01:26;;;;;;;7.93;2.72;;;4.90;72.80;;;;;;5064724;28;20021;-69
2021/04/10 17:03:53;;;;;;;3.38;1.70;;;4.90;73.10;;;;;;5063565;28;20107;-69
2021/04/10 17:06:19;;;;;;;6.00;1.40;;;4.90;73.20;;;;;;5061170;28;20472;-69
2021/04/10 17:08:47;;;;;;;8.57;4.50;;;4.90;73.40;;;;;;5064831;28;20016;-69
2021/04/10 17:11:14;;;;;;;12.35;5.07;;;4.80;73.20;;;;;;5065773;28;20043;-69
2021/04/10 17:13:40;;;;;;;16.95;7.22;;;4.80;73.40;;;;;;5063834;28;20047;-69
2021/04/10 17:16:06;;;;;;;78.47;35.28;;;4.80;73.00;;;;;;5064221;28;20037;-69
2021/04/10 17:18:32;;;;;;;77.45;33.63;;;4.70;73.40;;;;;;5065629;28;20021;-68